createdAt,value
2023-01-01T00:00:49.327Z,11.88
2023-01-01T00:03:16.336Z,12.52
2023-01-01T00:05:43.261Z,10.93
2023-01-01T00:08:10.332Z,8.60
2023-01-01T00:10:37.796Z,7.82
2023-01-01T00:13:04.736Z,7.40
2023-01-01T00:15:31.675Z,8.25
2023-01-01T00:17:58.620Z,8.70
2023-01-01T00:20:29.950Z,7.93
2023-01-01T00:23:00.138Z,8.45
2023-01-01T00:25:27.557Z,8.45
2023-01-01T00:27:55.687Z,8.60
2023-01-01T00:30:24.785Z,9.35
2023-01-01T00:32:54.864Z,7.40
2023-01-01T00:35:27.710Z,6.85
2023-01-01T00:37:55.450Z,7.07
2023-01-01T00:40:22.868Z,6.45
2023-01-01T00:42:49.840Z,6.35
2023-01-01T00:45:21.443Z,6.57
2023-01-01T00:47:54.077Z,6.47
2023-01-01T00:50:22.460Z,5.38
2023-01-01T00:52:50.114Z,6.07
2023-01-01T00:55:17.254Z,7.55
2023-01-01T00:57:44.198Z,7.55
2023-01-01T01:00:12.218Z,6.45
2023-01-01T01:02:39.452Z,5.97
2023-01-01T01:05:07.642Z,7.13
2023-01-01T01:07:42.058Z,5.57
2023-01-01T01:10:09.885Z,5.55
2023-01-01T01:12:36.836Z,4.75
2023-01-01T01:15:06.126Z,5.45
2023-01-01T01:17:34.053Z,4.65
2023-01-01T01:20:01.600Z,4.10
2023-01-01T01:22:29.323Z,5.22
2023-01-01T01:24:57.936Z,4.45
2023-01-01T01:27:24.983Z,3.95
2023-01-01T01:29:52.226Z,3.78
2023-01-01T01:32:19.328Z,4.00
2023-01-01T01:34:50.553Z,3.40
2023-01-01T01:37:17.447Z,4.28
2023-01-01T01:39:47.839Z,3.80
2023-01-01T01:42:18.837Z,3.40
2023-01-01T01:45:06.379Z,2.67
2023-01-01T01:47:47.401Z,3.42
2023-01-01T01:50:36.156Z,3.65
2023-01-01T01:53:30.676Z,4.93
2023-01-01T01:56:08.534Z,4.22
2023-01-01T01:58:35.772Z,3.63
2023-01-01T02:01:04.294Z,3.20
2023-01-01T02:03:39.719Z,2.60
2023-01-01T02:06:06.903Z,3.75
2023-01-01T02:08:35.684Z,3.50
2023-01-01T02:11:03.077Z,3.08
2023-01-01T02:13:30.678Z,2.78
2023-01-01T02:16:08.573Z,2.55
2023-01-01T02:19:23.269Z,3.50
2023-01-01T02:22:19.946Z,4.72
2023-01-01T02:25:09.522Z,4.07
2023-01-01T02:28:15.259Z,5.55
2023-01-01T02:30:46.744Z,5.00
2023-01-01T02:33:20.235Z,3.85
2023-01-01T02:35:58.767Z,1.60
2023-01-01T02:38:43.088Z,1.83
2023-01-01T02:41:43.704Z,2.30
2023-01-01T02:44:12.085Z,2.00
2023-01-01T02:46:39.377Z,1.98
2023-01-01T02:49:10.570Z,2.58
2023-01-01T02:52:04.948Z,2.85
2023-01-01T02:55:08.345Z,5.90
2023-01-01T02:57:50.439Z,4.38
2023-01-01T03:00:21.648Z,3.13
2023-01-01T03:03:07.025Z,2.85
2023-01-01T03:08:45.954Z,4.30
2023-01-01T03:11:19.524Z,4.43
2023-01-01T03:14:19.880Z,5.15
2023-01-01T03:17:00.507Z,3.42
2023-01-01T03:19:37.206Z,2.90
2023-01-01T03:22:17.101Z,3.58
2023-01-01T03:24:59.171Z,2.88
2023-01-01T03:27:33.480Z,4.05
2023-01-01T03:30:08.361Z,3.65
2023-01-01T03:33:00.068Z,3.53
2023-01-01T03:35:54.640Z,2.50
2023-01-01T03:38:30.064Z,3.08
2023-01-01T03:41:10.044Z,3.15
2023-01-01T03:43:52.936Z,1.90
2023-01-01T03:46:30.238Z,2.20
2023-01-01T03:49:03.021Z,1.92
2023-01-01T03:52:23.827Z,1.77
2023-01-01T03:55:09.097Z,1.88
2023-01-01T03:58:21.271Z,1.90
2023-01-01T04:01:01.900Z,1.75
2023-01-01T04:03:31.346Z,1.88
2023-01-01T04:05:58.499Z,1.83
2023-01-01T04:08:25.655Z,2.05
2023-01-01T04:10:57.768Z,2.90
2023-01-01T04:13:25.110Z,1.75
2023-01-01T04:15:52.097Z,1.58
2023-01-01T04:18:19.106Z,2.50
2023-01-01T04:20:46.051Z,2.33
2023-01-01T04:23:12.998Z,1.70
2023-01-01T04:25:39.896Z,1.80
2023-01-01T04:28:07.006Z,1.30
2023-01-01T04:32:59.861Z,1.58
2023-01-01T04:35:27.359Z,1.70
2023-01-01T04:37:54.604Z,1.02
2023-01-01T04:40:21.569Z,1.45
2023-01-01T04:42:48.428Z,1.90
2023-01-01T04:45:15.690Z,1.67
2023-01-01T04:47:42.651Z,2.00
2023-01-01T04:50:10.435Z,1.52
2023-01-01T04:52:37.554Z,1.40
2023-01-01T04:55:05.328Z,2.13
2023-01-01T04:57:32.426Z,1.80
2023-01-01T04:59:59.387Z,2.42
2023-01-01T05:02:26.894Z,1.98
2023-01-01T05:04:53.983Z,2.10
2023-01-01T05:07:20.925Z,2.20
2023-01-01T05:09:47.838Z,3.17
2023-01-01T05:12:15.032Z,2.30
2023-01-01T05:14:41.971Z,1.30
2023-01-01T05:17:08.877Z,1.48
2023-01-01T05:19:35.802Z,1.35
2023-01-01T05:22:08.534Z,1.85
2023-01-01T05:24:37.566Z,1.77
2023-01-01T05:27:04.638Z,2.30
2023-01-01T05:29:31.554Z,2.30
2023-01-01T05:31:58.522Z,2.08
2023-01-01T05:34:27.529Z,1.65
2023-01-01T05:36:54.468Z,2.03
2023-01-01T05:39:21.391Z,2.75
2023-01-01T05:41:48.578Z,1.80
2023-01-01T05:44:17.252Z,1.98
2023-01-01T05:46:44.307Z,3.58
2023-01-01T05:49:12.604Z,1.95
2023-01-01T05:54:05.973Z,1.90
2023-01-01T05:56:32.917Z,1.73
2023-01-01T05:59:01.851Z,1.60
2023-01-01T06:01:31.798Z,2.05
2023-01-01T06:04:00.382Z,3.10
2023-01-01T06:06:31.213Z,1.60
2023-01-01T06:09:02.153Z,1.77
2023-01-01T06:11:30.344Z,1.40
2023-01-01T06:14:00.452Z,1.60
2023-01-01T06:16:29.661Z,2.28
2023-01-01T06:18:56.829Z,2.22
2023-01-01T06:21:29.439Z,1.75
2023-01-01T06:23:59.733Z,1.55
2023-01-01T06:26:31.343Z,2.28
2023-01-01T06:28:59.757Z,2.72
2023-01-01T06:31:28.199Z,1.98
2023-01-01T06:33:55.418Z,2.42
2023-01-01T06:36:25.586Z,2.25
2023-01-01T06:38:56.348Z,1.90
2023-01-01T06:41:27.187Z,1.95
2023-01-01T06:43:56.460Z,2.00
2023-01-01T06:46:49.402Z,2.10
2023-01-01T06:49:16.419Z,2.40
2023-01-01T06:51:44.357Z,2.13
2023-01-01T06:54:11.673Z,2.78
2023-01-01T06:56:39.335Z,2.53
2023-01-01T06:59:06.566Z,1.88
2023-01-01T07:01:36.719Z,2.30
2023-01-01T07:04:08.157Z,2.10
2023-01-01T07:06:36.114Z,1.90
2023-01-01T07:09:05.330Z,1.80
2023-01-01T07:11:33.203Z,1.50
2023-01-01T07:14:01.787Z,1.48
2023-01-01T07:16:28.855Z,1.73
2023-01-01T07:18:57.415Z,1.70
2023-01-01T07:21:32.163Z,1.58
2023-01-01T07:24:04.721Z,1.42
2023-01-01T07:26:33.437Z,1.80
2023-01-01T07:29:08.423Z,2.22
2023-01-01T07:31:38.951Z,2.00
2023-01-01T07:34:07.548Z,1.63
2023-01-01T07:36:34.862Z,2.22
2023-01-01T07:39:01.833Z,2.13
2023-01-01T07:41:28.828Z,1.83
2023-01-01T07:43:56.569Z,1.48
2023-01-01T07:46:24.379Z,1.40
2023-01-01T07:48:51.448Z,1.70
2023-01-01T07:51:18.476Z,2.55
2023-01-01T07:53:45.528Z,1.98
2023-01-01T07:56:12.523Z,2.10
2023-01-01T07:58:41.627Z,1.90
2023-01-01T08:01:14.885Z,1.60
2023-01-01T08:03:42.654Z,1.70
2023-01-01T08:06:13.618Z,2.00
2023-01-01T08:08:41.306Z,1.70
2023-01-01T08:11:09.021Z,1.98
2023-01-01T08:13:36.590Z,1.77
2023-01-01T08:16:05.909Z,1.73
2023-01-01T08:18:33.052Z,1.75
2023-01-01T08:21:00.151Z,1.90
2023-01-01T08:23:27.119Z,1.55
2023-01-01T08:25:54.527Z,1.80
2023-01-01T08:28:21.476Z,1.40
2023-01-01T08:30:48.419Z,2.00
2023-01-01T08:33:15.485Z,2.10
2023-01-01T08:35:45.614Z,2.53
2023-01-01T08:38:15.880Z,1.80
2023-01-01T08:40:42.797Z,1.70
2023-01-01T08:43:09.673Z,2.20
2023-01-01T08:45:36.606Z,1.77
2023-01-01T08:48:04.013Z,2.15
2023-01-01T08:50:31.386Z,2.00
2023-01-01T08:52:59.219Z,1.70
2023-01-01T08:55:26.383Z,1.92
2023-01-01T08:57:53.421Z,2.90
2023-01-01T09:00:20.687Z,2.63
2023-01-01T09:02:47.798Z,2.78
2023-01-01T09:05:15.391Z,2.10
2023-01-01T09:07:42.356Z,1.83
2023-01-01T09:10:09.539Z,1.60
2023-01-01T09:12:36.574Z,2.15
2023-01-01T09:15:04.313Z,2.10
2023-01-01T09:17:31.262Z,2.00
2023-01-01T09:19:58.207Z,1.85
2023-01-01T09:22:25.126Z,1.92
2023-01-01T09:24:52.013Z,2.10
2023-01-01T09:27:18.920Z,2.70
2023-01-01T09:29:45.870Z,3.20
2023-01-01T09:32:12.818Z,2.60
2023-01-01T09:34:39.803Z,2.03
2023-01-01T09:37:06.754Z,2.05
2023-01-01T09:39:33.878Z,2.28
2023-01-01T09:42:32.294Z,1.85
2023-01-01T09:45:21.598Z,2.03
2023-01-01T09:47:58.853Z,1.50
2023-01-01T09:50:39.389Z,2.30
2023-01-01T09:53:26.391Z,1.63
2023-01-01T09:56:03.097Z,2.67
2023-01-01T09:58:36.772Z,2.20
2023-01-01T10:01:36.044Z,1.92
2023-01-01T10:04:31.249Z,1.83
2023-01-01T10:07:26.479Z,1.77
2023-01-01T10:10:55.615Z,2.25
2023-01-01T10:13:40.795Z,2.60
2023-01-01T10:16:24.716Z,3.10
2023-01-01T10:19:01.411Z,2.73
2023-01-01T10:21:42.022Z,2.92
2023-01-01T10:24:46.720Z,2.38
2023-01-01T10:27:41.325Z,2.60
2023-01-01T10:30:41.993Z,2.88
2023-01-01T10:33:33.952Z,2.15
2023-01-01T10:36:55.542Z,2.80
2023-01-01T10:40:07.446Z,1.98
2023-01-01T10:43:23.245Z,2.40
2023-01-01T10:46:33.545Z,3.00
2023-01-01T10:49:33.304Z,3.10
2023-01-01T10:52:44.505Z,2.60
2023-01-01T10:55:44.669Z,2.47
2023-01-01T11:01:39.271Z,2.20
2023-01-01T11:04:09.083Z,2.30
2023-01-01T11:06:39.849Z,2.60
2023-01-01T11:09:24.406Z,2.40
2023-01-01T11:12:11.759Z,2.00
2023-01-01T11:14:55.961Z,2.03
2023-01-01T11:17:27.606Z,2.35
2023-01-01T11:20:01.512Z,2.33
2023-01-01T11:22:51.511Z,1.70
2023-01-01T11:25:21.617Z,1.70
2023-01-01T11:27:50.483Z,2.05
2023-01-01T11:30:28.974Z,2.53
2023-01-01T11:33:02.975Z,3.35
2023-01-01T11:35:36.815Z,2.80
2023-01-01T11:38:04.673Z,4.45
2023-01-01T11:40:44.585Z,2.63
2023-01-01T11:43:22.869Z,3.30
2023-01-01T11:45:54.795Z,2.97
2023-01-01T11:48:35.015Z,2.85
2023-01-01T11:51:07.687Z,2.17
2023-01-01T11:53:41.596Z,2.22
2023-01-01T11:56:22.670Z,2.00
2023-01-01T11:58:57.849Z,2.42
2023-01-01T12:01:50.593Z,2.13
2023-01-01T12:04:28.763Z,2.13
2023-01-01T12:07:10.588Z,2.50
2023-01-01T12:09:48.461Z,1.85
2023-01-01T12:12:43.640Z,2.22
2023-01-01T12:15:31.398Z,2.53
2023-01-01T12:18:17.522Z,1.88
2023-01-01T12:21:02.901Z,1.70
2023-01-01T12:26:19.804Z,1.80
2023-01-01T12:29:27.520Z,2.45
2023-01-01T12:32:18.425Z,2.30
2023-01-01T12:35:40.044Z,2.10
2023-01-01T12:38:35.006Z,2.33
2023-01-01T12:41:36.182Z,1.87
2023-01-01T12:44:21.160Z,2.53
2023-01-01T12:47:01.965Z,2.00
2023-01-01T12:50:07.666Z,2.63
2023-01-01T12:53:17.581Z,2.10
2023-01-01T12:56:32.526Z,2.03
2023-01-01T12:59:20.853Z,3.13
2023-01-01T13:01:51.385Z,2.90
2023-01-01T13:04:22.198Z,2.65
2023-01-01T13:07:03.677Z,1.77
2023-01-01T13:09:48.346Z,1.95
2023-01-01T13:12:20.615Z,2.38
2023-01-01T13:14:50.105Z,2.00
2023-01-01T13:17:29.873Z,1.92
2023-01-01T13:20:23.415Z,2.42
2023-01-01T13:22:50.385Z,2.35
2023-01-01T13:25:17.212Z,2.25
2023-01-01T13:28:05.539Z,2.05
2023-01-01T13:30:38.744Z,3.13
2023-01-01T13:33:32.405Z,1.83
2023-01-01T13:36:11.939Z,2.03
2023-01-01T13:39:07.239Z,1.90
2023-01-01T13:41:43.564Z,2.08
2023-01-01T13:44:16.285Z,2.40
2023-01-01T13:46:52.274Z,2.03
2023-01-01T13:49:25.066Z,2.38
2023-01-01T13:52:13.255Z,2.22
2023-01-01T13:54:58.286Z,2.50
2023-01-01T13:58:07.083Z,3.53
2023-01-01T14:01:01.480Z,4.57
2023-01-01T14:03:38.482Z,4.03
2023-01-01T14:06:12.666Z,2.80
2023-01-01T14:08:40.275Z,3.03
2023-01-01T14:11:24.012Z,3.17
2023-01-01T14:13:51.171Z,3.20
2023-01-01T14:16:18.611Z,2.38
2023-01-01T14:18:53.534Z,2.65
2023-01-01T14:21:31.730Z,3.50
2023-01-01T14:24:03.937Z,3.17
2023-01-01T14:26:34.081Z,2.90
2023-01-01T14:29:07.542Z,2.30
2023-01-01T14:31:45.700Z,2.25
2023-01-01T14:34:31.301Z,3.30
2023-01-01T14:37:01.685Z,2.13
2023-01-01T14:39:31.228Z,2.10
2023-01-01T14:42:13.529Z,2.40
2023-01-01T14:44:46.403Z,2.08
2023-01-01T14:47:25.903Z,3.00
2023-01-01T14:49:55.368Z,2.40
2023-01-01T14:52:31.264Z,2.10
2023-01-01T14:55:00.894Z,2.22
2023-01-01T14:57:34.358Z,2.47
2023-01-01T15:00:04.285Z,2.72
2023-01-01T15:02:37.974Z,2.58
2023-01-01T15:05:36.619Z,3.17
2023-01-01T15:08:07.677Z,3.15
2023-01-01T15:10:38.530Z,2.65
2023-01-01T15:13:07.781Z,3.63
2023-01-01T15:15:45.118Z,4.63
2023-01-01T15:18:45.958Z,5.15
2023-01-01T15:21:30.974Z,3.97
2023-01-01T15:24:00.271Z,2.78
2023-01-01T15:26:48.947Z,3.78
2023-01-01T15:29:27.242Z,5.03
2023-01-01T15:32:00.954Z,5.35
2023-01-01T15:34:40.226Z,3.33
2023-01-01T15:37:23.831Z,2.90
2023-01-01T15:39:55.570Z,3.10
2023-01-01T15:42:36.263Z,2.42
2023-01-01T15:45:20.289Z,2.55
2023-01-01T15:47:49.647Z,2.28
2023-01-01T15:50:29.554Z,2.38
2023-01-01T15:53:01.919Z,2.30
2023-01-01T15:55:35.986Z,1.90
2023-01-01T15:58:04.436Z,2.08
2023-01-01T16:00:38.187Z,2.13
2023-01-01T16:03:22.732Z,2.40
2023-01-01T16:05:57.940Z,2.00
2023-01-01T16:08:25.955Z,2.63
2023-01-01T16:10:53.221Z,2.67
2023-01-01T16:13:20.308Z,2.30
2023-01-01T16:15:53.793Z,3.05
2023-01-01T16:18:33.319Z,4.53
2023-01-01T16:21:02.690Z,3.33
2023-01-01T16:23:29.790Z,4.07
2023-01-01T16:25:56.942Z,2.97
2023-01-01T16:28:23.908Z,3.50
2023-01-01T16:30:51.973Z,11.10
2023-01-01T16:33:24.346Z,3.35
2023-01-01T16:35:51.451Z,2.10
2023-01-01T16:38:18.779Z,3.90
2023-01-01T16:40:45.792Z,2.92
2023-01-01T16:43:17.584Z,4.10
2023-01-01T16:45:45.381Z,5.90
2023-01-01T16:48:12.686Z,3.17
2023-01-01T16:50:39.802Z,4.05
2023-01-01T16:53:06.964Z,3.08
2023-01-01T16:55:34.136Z,4.90
2023-01-01T16:58:38.616Z,4.28
2023-01-01T17:00:48.543Z,4.03
2023-01-01T17:03:18.032Z,3.70
2023-01-01T17:05:45.375Z,4.82
2023-01-01T17:08:13.218Z,3.08
2023-01-01T17:10:40.444Z,3.85
2023-01-01T17:13:08.432Z,2.63
2023-01-01T17:15:36.194Z,2.58
2023-01-01T17:18:04.641Z,2.28
2023-01-01T17:20:34.568Z,3.38
2023-01-01T17:23:01.973Z,2.47
2023-01-01T17:25:29.765Z,3.08
2023-01-01T17:27:57.285Z,4.15
2023-01-01T17:30:24.336Z,3.35
2023-01-01T17:32:51.525Z,2.30
2023-01-01T17:35:18.993Z,2.40
2023-01-01T17:37:46.682Z,2.42
2023-01-01T17:40:13.680Z,2.72
2023-01-01T17:42:41.219Z,2.88
2023-01-01T17:45:09.999Z,4.25
2023-01-01T17:47:37.666Z,3.60
2023-01-01T17:50:06.144Z,4.78
2023-01-01T17:52:36.206Z,3.85
2023-01-01T17:55:03.551Z,3.75
2023-01-01T17:57:32.983Z,4.38
2023-01-01T18:00:01.530Z,5.15
2023-01-01T18:02:28.603Z,2.90
2023-01-01T18:04:56.082Z,4.18
2023-01-01T18:07:24.046Z,6.93
2023-01-01T18:09:51.078Z,5.30
2023-01-01T18:12:18.124Z,4.95
2023-01-01T18:14:45.293Z,5.03
2023-01-01T18:17:12.516Z,5.10
2023-01-01T18:19:39.524Z,3.45
2023-01-01T18:22:06.807Z,9.52
2023-01-01T18:24:33.863Z,4.07
2023-01-01T18:27:00.919Z,4.97
2023-01-01T18:29:27.892Z,4.10
2023-01-01T18:31:54.946Z,2.58
2023-01-01T18:34:21.994Z,4.10
2023-01-01T18:36:48.908Z,4.38
2023-01-01T18:39:30.290Z,4.38
2023-01-01T18:42:39.734Z,2.70
2023-01-01T18:45:20.642Z,3.65
2023-01-01T18:47:48.795Z,4.78
2023-01-01T18:50:29.221Z,4.50
2023-01-01T18:53:20.317Z,4.60
2023-01-01T18:55:52.312Z,3.88
2023-01-01T18:58:23.920Z,3.70
2023-01-01T19:00:53.632Z,4.40
2023-01-01T19:03:28.225Z,4.68
2023-01-01T19:05:57.980Z,7.30
2023-01-01T19:08:29.551Z,5.03
2023-01-01T19:10:59.991Z,5.22
2023-01-01T19:13:36.594Z,5.65
2023-01-01T19:31:55.625Z,5.68
2023-01-01T19:43:37.362Z,5.80
2023-01-01T19:47:30.845Z,3.50
2023-01-01T19:55:13.829Z,5.30
2023-01-01T19:58:16.568Z,6.15
2023-01-01T20:09:42.165Z,4.45
2023-01-01T20:13:16.993Z,4.95
2023-01-01T20:23:10.411Z,4.53
2023-01-01T20:32:05.100Z,4.82
2023-01-01T20:33:50.892Z,4.22
2023-01-01T20:36:46.738Z,4.43
2023-01-01T20:39:48.976Z,3.65
2023-01-01T20:42:45.424Z,4.03
2023-01-01T20:45:14.502Z,3.22
2023-01-01T20:47:41.960Z,4.03
2023-01-01T20:50:09.480Z,4.20
2023-01-01T20:52:36.442Z,3.67
2023-01-01T20:55:03.721Z,3.95
2023-01-01T20:57:30.678Z,3.50
2023-01-01T20:59:57.664Z,3.42
2023-01-01T21:02:24.842Z,3.53
2023-01-01T21:04:51.962Z,4.10
2023-01-01T21:07:19.010Z,3.45
2023-01-01T21:09:45.955Z,3.78
2023-01-01T21:12:13.522Z,3.22
2023-01-01T21:14:41.523Z,3.20
2023-01-01T21:17:34.816Z,3.13
2023-01-01T21:20:01.767Z,3.75
2023-01-01T21:22:28.883Z,4.00
2023-01-01T21:25:16.718Z,3.08
2023-01-01T21:27:44.910Z,3.05
2023-01-01T21:30:13.698Z,3.20
2023-01-01T21:32:44.165Z,3.05
2023-01-01T21:35:14.895Z,3.50
2023-01-01T21:37:47.571Z,3.95
2023-01-01T21:40:32.966Z,4.22
2023-01-01T21:45:40.766Z,3.83
2023-01-01T21:50:56.970Z,2.78
2023-01-01T21:53:34.699Z,4.40
2023-01-01T21:56:29.428Z,3.85
2023-01-01T21:59:28.461Z,4.00
2023-01-01T22:02:05.760Z,4.20
2023-01-01T22:04:43.072Z,4.32
2023-01-01T22:07:56.981Z,4.70
2023-01-01T22:10:23.365Z,4.05
2023-01-01T22:13:00.143Z,3.45
2023-01-01T22:15:40.009Z,3.20
2023-01-01T22:18:21.958Z,3.70
2023-01-01T22:20:49.044Z,3.30
2023-01-01T22:23:41.108Z,5.28
2023-01-01T22:26:27.629Z,3.60
2023-01-01T22:29:17.956Z,3.20
2023-01-01T22:31:49.121Z,4.13
2023-01-01T22:34:23.017Z,3.58
2023-01-01T22:36:50.150Z,2.95
2023-01-01T22:39:34.987Z,3.90
2023-01-01T22:42:03.931Z,4.05
2023-01-01T22:44:33.573Z,3.47
2023-01-01T22:47:01.643Z,4.07
2023-01-01T22:49:47.092Z,3.88
2023-01-01T22:52:14.639Z,3.70
2023-01-01T22:54:41.641Z,4.07
2023-01-01T22:57:08.876Z,3.65
2023-01-01T22:59:35.872Z,3.20
2023-01-01T23:02:03.555Z,3.63
2023-01-01T23:04:31.448Z,3.97
2023-01-01T23:06:58.919Z,3.42
2023-01-01T23:09:25.993Z,2.80
2023-01-01T23:11:55.174Z,3.50
2023-01-01T23:14:41.269Z,3.72
2023-01-01T23:17:08.701Z,3.47
2023-01-01T23:19:35.810Z,4.00
2023-01-01T23:22:04.082Z,3.50
2023-01-01T23:24:32.417Z,3.38
2023-01-01T23:27:01.067Z,3.78
2023-01-01T23:29:33.328Z,4.45
2023-01-01T23:32:02.182Z,4.32
2023-01-01T23:34:29.318Z,4.03
2023-01-01T23:36:57.730Z,4.22
2023-01-01T23:39:24.669Z,4.78
2023-01-01T23:41:53.979Z,3.42
2023-01-01T23:44:20.903Z,3.70
2023-01-01T23:46:48.289Z,4.40
2023-01-01T23:49:15.646Z,2.78
2023-01-01T23:51:42.900Z,4.55
2023-01-01T23:54:10.199Z,3.35
2023-01-01T23:56:37.223Z,3.58
2023-01-01T23:59:04.251Z,2.92
